Time;durP1;ratioP1;P1;durP2;ratioP2;P2;SDS_P1;SDS_P2;PMS_P1;PMS_P2;Temp;Humidity;BMP_temperature;BMP_pressure;BME280_temperature;BME280_humidity;BME280_pressure;Samples;Min_cycle;Max_cycle;Signal;HPM_P1;HPM_P2
2023/10/13 06:30:08;;;;;;;;;;;;;;;12.79;100.00;100321.91;109712;1262;22481;-47
2023/10/13 06:32:35;;;;;;;;;;;;;;;12.83;100.00;100323.11;109845;1270;22509;-48
2023/10/13 06:35:18;;;;;;;;;;;;;;;12.86;100.00;100333.40;109719;1273;22467;-42
2023/10/13 06:37:51;;;;;;;;;;;;;;;12.90;100.00;100344.73;109881;1271;22464;-48
2023/10/13 06:43:17;;;;;;;;;;;;;;;12.93;100.00;100354.35;110015;1272;22504;-43
2023/10/13 06:49:11;;;;;;;;;;;;;;;12.96;100.00;100369.02;110003;1272;22487;-42
2023/10/13 06:51:46;;;;;;;;;;;;;;;12.98;100.00;100370.58;109921;1262;23746;-43
2023/10/13 06:54:33;;;;;;;;;;;;;;;13.01;100.00;100376.86;109966;1265;22521;-43
2023/10/13 06:57:00;;;;;;;;;;;;;;;13.04;100.00;100372.63;110084;1268;22487;-47
2023/10/13 06:59:27;;;;;;;;;;;;;;;13.07;100.00;100371.73;110032;1266;22544;-48
2023/10/13 07:02:06;;;;;;;;;;;;;;;13.10;100.00;100368.20;110074;1261;22445;-42
2023/10/13 07:04:56;;;;;;;;;;;;;;;13.16;100.00;100368.15;110042;1266;23279;-49
2023/10/13 07:07:23;;;;;;;;;;;;;;;13.22;100.00;100365.14;110045;1267;22987;-42
2023/10/13 07:09:55;;;;;;;;;;;;;;;13.28;99.95;100371.91;110011;1263;22589;-48
2023/10/13 07:12:26;;;;;;;;;;;;;;;13.31;100.00;100374.16;109895;1264;22506;-48
2023/10/13 07:14:54;;;;;;;;;;;;;;;13.37;99.95;100382.88;109824;1269;22518;-43
2023/10/13 07:17:24;;;;;;;;;;;;;;;13.42;99.82;100383.88;109960;1268;23014;-49
2023/10/13 07:20:06;;;;;;;;;;;;;;;13.45;99.89;100382.08;109824;1265;22493;-42
2023/10/13 07:22:39;;;;;;;;;;;;;;;13.53;99.98;100387.95;109909;1272;23718;-47
2023/10/13 07:25:08;;;;;;;;;;;;;;;13.60;100.00;100389.27;109909;1272;22447;-48
2023/10/13 07:27:35;;;;;;;;;;;;;;;13.69;100.00;100391.28;108229;1271;2197933;-48
2023/10/13 07:30:14;;;;;;;;;;;;;;;13.78;99.96;100392.59;109944;1272;22753;-47
2023/10/13 07:32:50;;;;;;;;;;;;;;;13.88;99.22;100387.04;109961;1270;22447;-48
2023/10/13 07:35:18;;;;;;;;;;;;;;;13.95;98.57;100387.12;109976;1270;22581;-44
2023/10/13 07:37:48;;;;;;;;;;;;;;;14.01;97.61;100389.31;109903;1266;22579;-42
2023/10/13 07:45:51;;;;;;;;;;;;;;;14.03;95.75;100411.39;109867;1272;22441;-48
2023/10/13 07:48:21;;;;;;;;;;;;;;;14.04;95.29;100416.48;109949;1266;23347;-42
2023/10/13 07:50:48;;;;;;;;;;;;;;;14.03;94.86;100408.59;110069;1272;22465;-43
2023/10/13 07:53:24;;;;;;;;;;;;;;;14.03;94.85;100412.45;109849;1259;22456;-44
2023/10/13 07:55:55;;;;;;;;;;;;;;;14.02;94.54;100410.36;109856;1271;23373;-42
2023/10/13 07:58:24;;;;;;;;;;;;;;;14.01;94.91;100405.80;110048;1267;23130;-42
2023/10/13 08:01:06;;;;;;;;;;;;;;;14.05;95.41;100401.72;109963;1268;22520;-48
2023/10/13 08:08:39;;;;;;;;;;;;;;;14.14;94.92;100389.50;109906;1263;22452;-43
2023/10/13 08:11:24;;;;;;;;;;;;;;;14.16;95.08;100385.29;109940;1270;22491;-48
2023/10/13 08:13:54;;;;;;;;;;;;;;;14.17;95.29;100391.05;109952;1267;22502;-42
2023/10/13 08:19:49;;;;;;;;;;;;;;;14.27;96.61;100398.99;109796;1272;22471;-42
2023/10/13 08:43:09;;;;;;;;;;;;;;;14.54;97.09;100403.19;109731;1274;22476;-48
2023/10/13 08:56:33;;;;;;;;;;;;;;;14.69;96.82;100421.60;110096;1270;22460;-42
2023/10/13 09:01:37;;;;;;;;;;;;;;;14.67;97.56;100424.42;109988;1263;23146;-48
2023/10/13 09:06:57;;;;;;;;;;;;;;;14.68;97.72;100425.66;109852;1268;22790;-42
2023/10/13 09:09:27;;;;;;;;;;;;;;;14.66;98.33;100426.18;109906;1267;22437;-49
2023/10/13 09:12:07;;;;;;;;;;;;;;;14.63;98.73;100425.55;109872;1272;22450;-42
2023/10/13 09:14:56;;;;;;;;;;;;;;;14.59;98.85;100430.34;109909;1272;23231;-47
2023/10/13 09:20:11;;;;;;;;;;;;;;;14.47;99.44;100441.38;109930;1272;22511;-48
2023/10/13 09:23:45;;;;;;;;;;;;;;;14.41;99.77;100434.06;109906;1273;22439;-48
2023/10/13 09:25:37;;;;;;;;;;;;;;;14.35;100.00;100431.15;109993;1272;22462;-47
2023/10/13 09:28:18;;;;;;;;;;;;;;;14.30;100.00;100433.33;109945;1265;22508;-48
2023/10/13 09:30:48;;;;;;;;;;;;;;;14.25;100.00;100431.81;109944;1272;23132;-49
2023/10/13 09:33:32;;;;;;;;;;;;;;;14.23;100.00;100427.81;109974;1272;22497;-48
2023/10/13 09:36:10;;;;;;;;;;;;;;;14.22;100.00;100424.49;110058;1269;22433;-48
2023/10/13 09:38:40;;;;;;;;;;;;;;;14.21;100.00;100424.52;110062;1270;22443;-48
2023/10/13 09:41:18;;;;;;;;;;;;;;;14.22;100.00;100424.31;110119;1265;22508;-48
2023/10/13 09:43:45;;;;;;;;;;;;;;;14.23;100.00;100428.86;110095;1269;23195;-48
2023/10/13 09:46:17;;;;;;;;;;;;;;;14.22;100.00;100429.05;110026;1272;22523;-47
2023/10/13 09:48:49;;;;;;;;;;;;;;;14.19;100.00;100436.80;109871;1271;22552;-47
2023/10/13 09:51:21;;;;;;;;;;;;;;;14.15;100.00;100443.17;110117;1274;23144;-48
2023/10/13 09:54:06;;;;;;;;;;;;;;;14.11;100.00;100443.92;109989;1272;22542;-48
2023/10/13 09:57:25;;;;;;;;;;;;;;;14.11;100.00;100446.56;110124;1264;23218;-48
2023/10/13 09:59:53;;;;;;;;;;;;;;;14.12;100.00;100449.70;109518;1275;22535;-48
2023/10/13 10:02:26;;;;;;;;;;;;;;;14.11;100.00;100452.52;109551;1274;22484;-48
2023/10/13 10:04:55;;;;;;;;;;;;;;;14.11;100.00;100454.62;109404;1277;22653;-49
2023/10/13 10:07:28;;;;;;;;;;;;;;;14.11;100.00;100455.67;109486;1264;22502;-47
2023/10/13 10:09:56;;;;;;;;;;;;;;;14.10;100.00;100457.80;109430;1280;22467;-48
2023/10/13 10:12:41;;;;;;;;;;;;;;;14.10;100.00;100454.64;109338;1283;23254;-42
2023/10/13 10:15:43;;;;;;;;;;;;;;;14.12;100.00;100453.20;109418;1277;23386;-48
2023/10/13 10:18:24;;;;;;;;;;;;;;;14.14;100.00;100456.16;109497;1276;22499;-44
2023/10/13 10:20:55;;;;;;;;;;;;;;;14.15;100.00;100448.95;109256;1278;24046;-43
2023/10/13 10:23:24;;;;;;;;;;;;;;;14.15;100.00;100450.20;109331;1276;23244;-42
2023/10/13 10:25:51;;;;;;;;;;;;;;;14.14;100.00;100452.13;109420;1276;23332;-43
2023/10/13 10:28:19;;;;;;;;;;;;;;;14.15;100.00;100448.79;109505;1280;22612;-41
2023/10/13 10:30:46;;;;;;;;;;;;;;;14.15;100.00;100451.77;109558;1274;22461;-44
2023/10/13 10:33:18;;;;;;;;;;;;;;;14.17;100.00;100456.48;109422;1268;22952;-48
2023/10/13 10:35:45;;;;;;;;;;;;;;;14.18;100.00;100458.75;109848;1276;23116;-43
2023/10/13 10:38:23;;;;;;;;;;;;;;;14.20;100.00;100460.13;109962;1272;22441;-42
2023/10/13 10:40:58;;;;;;;;;;;;;;;14.23;100.00;100461.31;110109;1272;22502;-43
2023/10/13 10:43:47;;;;;;;;;;;;;;;14.27;100.00;100455.84;110079;1265;22494;-40
2023/10/13 10:46:18;;;;;;;;;;;;;;;14.29;100.00;100460.72;110076;1268;22463;-42
2023/10/13 10:48:45;;;;;;;;;;;;;;;14.31;100.00;100453.13;110058;1278;22515;-40
2023/10/13 10:51:21;;;;;;;;;;;;;;;14.34;100.00;100456.09;110106;1269;22433;-41
2023/10/13 10:53:51;;;;;;;;;;;;;;;14.43;100.00;100455.80;110077;1267;23257;-42
2023/10/13 10:56:37;;;;;;;;;;;;;;;14.52;100.00;100449.23;110058;1271;23041;-42
2023/10/13 10:59:05;;;;;;;;;;;;;;;14.62;100.00;100443.80;110111;1268;22602;-42
2023/10/13 11:01:38;;;;;;;;;;;;;;;14.73;100.00;100445.92;109959;1272;23301;-48
2023/10/13 11:04:14;;;;;;;;;;;;;;;14.86;100.00;100441.17;110054;1265;22563;-49
2023/10/13 11:07:02;;;;;;;;;;;;;;;15.00;100.00;100441.30;109700;1272;22484;-47
2023/10/13 11:12:26;;;;;;;;;;;;;;;15.15;100.00;100447.56;109953;1272;22455;-42
2023/10/13 11:15:09;;;;;;;;;;;;;;;15.20;100.00;100446.44;110056;1278;23173;-42
2023/10/13 11:17:42;;;;;;;;;;;;;;;15.24;100.00;100451.63;110050;1262;22465;-47
2023/10/13 11:20:16;;;;;;;;;;;;;;;15.29;100.00;100451.02;109949;1265;22408;-47
2023/10/13 11:22:47;;;;;;;;;;;;;;;15.34;100.00;100450.06;109905;1270;23330;-42
2023/10/13 11:25:29;;;;;;;;;;;;;;;15.42;100.00;100455.73;110006;1270;23275;-42
2023/10/13 11:27:58;;;;;;;;;;;;;;;15.53;100.00;100456.06;110010;1272;22486;-42
2023/10/13 11:30:25;;;;;;;;;;;;;;;15.61;100.00;100456.62;110030;1268;22486;-43
2023/10/13 11:32:59;;;;;;;;;;;;;;;15.69;100.00;100459.85;110061;1273;22588;-42
2023/10/13 11:35:48;;;;;;;;;;;;;;;15.76;100.00;100456.04;109875;1270;22477;-42
2023/10/13 11:38:14;;;;;;;;;;;;;;;15.85;100.00;100454.10;109709;1272;22499;-42
2023/10/13 11:40:44;;;;;;;;;;;;;;;15.89;100.00;100456.13;110041;1272;22458;-42
2023/10/13 11:43:15;;;;;;;;;;;;;;;15.93;100.00;100458.34;109956;1272;22509;-47
2023/10/13 11:48:36;;;;;;;;;;;;;;;15.99;100.00;100455.05;109967;1268;22958;-43
2023/10/13 11:51:16;;;;;;;;;;;;;;;16.02;100.00;100459.75;110061;1267;22439;-43
2023/10/13 11:53:44;;;;;;;;;;;;;;;16.13;100.00;100459.88;109967;1270;22544;-42
2023/10/13 11:56:11;;;;;;;;;;;;;;;16.23;100.00;100462.67;110064;1268;22519;-41
2023/10/13 11:58:38;;;;;;;;;;;;;;;16.29;100.00;100459.54;109962;1262;22443;-43
2023/10/13 12:11:47;;;;;;;;;;;;;;;16.56;100.00;100452.46;109884;1272;22517;-43
2023/10/13 12:14:17;;;;;;;;;;;;;;;16.61;100.00;100450.22;109963;1272;22634;-47
2023/10/13 12:16:48;;;;;;;;;;;;;;;16.66;100.00;100452.94;109957;1271;22461;-41
2023/10/13 12:19:24;;;;;;;;;;;;;;;16.66;100.00;100452.43;109951;1272;22998;-42
2023/10/13 12:21:55;;;;;;;;;;;;;;;16.64;100.00;100455.27;109945;1276;22501;-48
2023/10/13 12:27:02;;;;;;;;;;;;;;;16.63;100.00;100450.70;110004;1272;22489;-43
2023/10/13 12:29:29;;;;;;;;;;;;;;;16.65;100.00;100451.73;109979;1269;22511;-48
2023/10/13 12:32:09;;;;;;;;;;;;;;;16.67;100.00;100452.55;110058;1267;22460;-48
2023/10/13 12:34:57;;;;;;;;;;;;;;;16.71;100.00;100454.61;109970;1271;23234;-48
2023/10/13 12:51:21;;;;;;;;;;;;;;;16.66;99.97;100465.27;110024;1272;22954;-42
2023/10/13 12:53:48;;;;;;;;;;;;;;;16.65;99.97;100463.89;110073;1268;23601;-49
2023/10/13 12:56:25;;;;;;;;;;;;;;;16.66;100.00;100458.75;109936;1265;23011;-43
2023/10/13 12:58:52;;;;;;;;;;;;;;;16.71;100.00;100461.47;109959;1267;22435;-42
2023/10/13 13:01:21;;;;;;;;;;;;;;;16.76;100.00;100468.07;110058;1267;22498;-42
2023/10/13 13:03:49;;;;;;;;;;;;;;;16.81;100.00;100467.77;110094;1278;22463;-41
2023/10/13 13:06:17;;;;;;;;;;;;;;;16.97;99.95;100459.13;110085;1278;22448;-42
2023/10/13 13:08:44;;;;;;;;;;;;;;;17.16;99.30;100458.84;110075;1278;22468;-44
2023/10/13 13:11:11;;;;;;;;;;;;;;;17.35;98.75;100454.49;110093;1278;22495;-43
2023/10/13 13:13:37;;;;;;;;;;;;;;;17.59;97.63;100454.40;109947;1278;23203;-41
2023/10/13 13:16:07;;;;;;;;;;;;;;;17.79;96.77;100446.84;110061;1275;23552;-42
2023/10/13 13:18:34;;;;;;;;;;;;;;;17.95;96.09;100444.64;110100;1278;22947;-43
2023/10/13 13:21:06;;;;;;;;;;;;;;;17.97;95.33;100441.91;110087;1278;22523;-42
2023/10/13 13:23:34;;;;;;;;;;;;;;;17.94;95.02;100443.45;110107;1278;22553;-42
2023/10/13 13:26:01;;;;;;;;;;;;;;;17.84;94.96;100437.88;110155;1278;22485;-41
2023/10/13 13:28:37;;;;;;;;;;;;;;;17.74;95.31;100438.15;110189;1269;22449;-42
2023/10/13 13:31:08;;;;;;;;;;;;;;;17.68;96.08;100441.29;110060;1278;22517;-42
2023/10/13 13:33:38;;;;;;;;;;;;;;;17.68;96.14;100450.61;110060;1278;23205;-43
2023/10/13 13:36:05;;;;;;;;;;;;;;;17.68;95.91;100448.85;110024;1272;23312;-42
2023/10/13 13:38:33;;;;;;;;;;;;;;;17.68;95.81;100449.73;110050;1266;23316;-44
2023/10/13 13:41:02;;;;;;;;;;;;;;;17.70;95.34;100447.42;110094;1275;22484;-42
2023/10/13 13:43:38;;;;;;;;;;;;;;;17.71;94.84;100444.39;110133;1266;22971;-43
2023/10/13 13:46:09;;;;;;;;;;;;;;;17.71;94.83;100444.40;110035;1269;22711;-43
2023/10/13 13:48:37;;;;;;;;;;;;;;;17.74;94.43;100443.98;110078;1271;23291;-43
2023/10/13 13:51:26;;;;;;;;;;;;;;;17.73;94.53;100442.05;109934;1278;23355;-41
2023/10/13 13:53:56;;;;;;;;;;;;;;;17.78;94.29;100445.98;110055;1278;22517;-43
2023/10/13 13:56:25;;;;;;;;;;;;;;;17.74;94.14;100450.67;110143;1269;22494;-43
2023/10/13 13:58:53;;;;;;;;;;;;;;;17.68;94.56;100455.23;110087;1278;22604;-42
2023/10/13 14:01:21;;;;;;;;;;;;;;;17.66;94.72;100461.08;110038;1276;22448;-42
2023/10/13 14:03:50;;;;;;;;;;;;;;;17.73;94.76;100453.70;110020;1268;23259;-42
2023/10/13 14:06:23;;;;;;;;;;;;;;;17.96;94.38;100457.83;110085;1264;22500;-41
2023/10/13 14:08:59;;;;;;;;;;;;;;;18.30;93.09;100461.47;110147;1268;22454;-42
2023/10/13 14:14:11;;;;;;;;;;;;;;;19.00;89.27;100471.54;110110;1268;22856;-41
2023/10/13 14:16:45;;;;;;;;;;;;;;;19.10;87.71;100473.34;110020;1262;23292;-44
2023/10/13 14:19:12;;;;;;;;;;;;;;;18.98;87.61;100473.20;109986;1272;22546;-43
2023/10/13 14:21:39;;;;;;;;;;;;;;;19.02;87.62;100474.13;109992;1269;22534;-48
2023/10/13 14:24:13;;;;;;;;;;;;;;;19.17;86.97;100480.88;109959;1260;23137;-43
2023/10/13 14:26:44;;;;;;;;;;;;;;;19.36;86.21;100486.30;110029;1271;23164;-45
2023/10/13 14:29:14;;;;;;;;;;;;;;;19.50;85.48;100485.28;109976;1268;23260;-43
2023/10/13 14:31:41;;;;;;;;;;;;;;;19.53;84.89;100489.79;110039;1259;22589;-43
2023/10/13 14:34:08;;;;;;;;;;;;;;;19.52;84.93;100494.41;109955;1272;23421;-45
2023/10/13 14:36:37;;;;;;;;;;;;;;;19.54;84.40;100491.88;109939;1259;22514;-43
2023/10/13 14:39:08;;;;;;;;;;;;;;;19.47;84.15;100491.05;109982;1268;22571;-42
2023/10/13 14:41:36;;;;;;;;;;;;;;;19.29;84.33;100493.41;109955;1261;22569;-42
2023/10/13 14:44:06;;;;;;;;;;;;;;;19.05;84.98;100493.12;110060;1267;22527;-48
2023/10/13 14:46:36;;;;;;;;;;;;;;;18.81;85.78;100489.64;110113;1266;22447;-48
2023/10/13 14:49:03;;;;;;;;;;;;;;;18.58;86.69;100485.19;110119;1269;23334;-48
2023/10/13 14:51:31;;;;;;;;;;;;;;;18.35;87.55;100490.45;110082;1266;23290;-48
2023/10/13 14:53:59;;;;;;;;;;;;;;;18.12;88.57;100489.88;110033;1275;23325;-48
2023/10/13 14:56:26;;;;;;;;;;;;;;;17.86;89.67;100496.74;110115;1268;22520;-48
2023/10/13 14:58:53;;;;;;;;;;;;;;;17.58;90.78;100499.93;109946;1266;22520;-48
2023/10/13 15:01:21;;;;;;;;;;;;;;;17.24;91.90;100498.83;110100;1266;22521;-48
2023/10/13 15:03:48;;;;;;;;;;;;;;;16.90;93.45;100496.64;110169;1269;22518;-48
2023/10/13 15:06:18;;;;;;;;;;;;;;;16.58;95.04;100497.30;110154;1269;22460;-47
2023/10/13 15:08:46;;;;;;;;;;;;;;;16.28;96.72;100498.64;110165;1269;23313;-47
2023/10/13 15:11:13;;;;;;;;;;;;;;;15.99;98.20;100492.34;110117;1269;23252;-48
2023/10/13 15:13:42;;;;;;;;;;;;;;;15.74;99.70;100497.21;110034;1278;22446;-47
2023/10/13 15:16:13;;;;;;;;;;;;;;;15.51;100.00;100498.46;110052;1272;23404;-48
